sensor_id;sensor_type;location;lat;lon;timestamp;pressure;altitude;pressure_sealevel;temperature;humidity
64095;BME280;50353;51.420;5.682;2024-02-14T00:01:33;101269.53;;;8.08;100.00
64095;BME280;50353;51.420;5.682;2024-02-14T00:04:03;101258.94;;;8.10;100.00
64095;BME280;50353;51.420;5.682;2024-02-14T00:06:29;101256.63;;;8.02;100.00
64095;BME280;50353;51.420;5.682;2024-02-14T00:08:54;101249.78;;;7.98;100.00
64095;BME280;50353;51.420;5.682;2024-02-14T00:11:19;101259.34;;;8.21;100.00
64095;BME280;50353;51.420;5.682;2024-02-14T00:13:45;101249.25;;;8.10;100.00
64095;BME280;50353;51.420;5.682;2024-02-14T00:16:10;101254.28;;;8.17;100.00
64095;BME280;50353;51.420;5.682;2024-02-14T00:18:36;101258.28;;;8.25;100.00
64095;BME280;50353;51.420;5.682;2024-02-14T00:21:01;101248.50;;;8.27;100.00
64095;BME280;50353;51.420;5.682;2024-02-14T00:23:27;101250.84;;;8.15;100.00
64095;BME280;50353;51.420;5.682;2024-02-14T00:25:52;101248.22;;;8.15;100.00
64095;BME280;50353;51.420;5.682;2024-02-14T00:28:18;101234.94;;;8.37;100.00
64095;BME280;50353;51.420;5.682;2024-02-14T00:30:43;101231.22;;;8.22;100.00
64095;BME280;50353;51.420;5.682;2024-02-14T00:33:08;101223.97;;;8.27;100.00
64095;BME280;50353;51.420;5.682;2024-02-14T00:35:34;101230.53;;;8.37;100.00
64095;BME280;50353;51.420;5.682;2024-02-14T00:37:59;101226.28;;;8.35;100.00
64095;BME280;50353;51.420;5.682;2024-02-14T00:40:25;101235.16;;;8.32;100.00
64095;BME280;50353;51.420;5.682;2024-02-14T00:42:50;101221.34;;;8.27;100.00
64095;BME280;50353;51.420;5.682;2024-02-14T00:45:15;101219.94;;;8.39;100.00
64095;BME280;50353;51.420;5.682;2024-02-14T00:47:41;101223.63;;;8.35;100.00
64095;BME280;50353;51.420;5.682;2024-02-14T00:50:06;101225.34;;;8.36;100.00
64095;BME280;50353;51.420;5.682;2024-02-14T00:52:32;101213.69;;;8.41;100.00
64095;BME280;50353;51.420;5.682;2024-02-14T00:54:57;101204.94;;;8.60;100.00
64095;BME280;50353;51.420;5.682;2024-02-14T00:57:23;101206.63;;;8.42;100.00
64095;BME280;50353;51.420;5.682;2024-02-14T00:59:52;101212.34;;;8.52;100.00
64095;BME280;50353;51.420;5.682;2024-02-14T01:02:18;101211.66;;;8.67;100.00
64095;BME280;50353;51.420;5.682;2024-02-14T01:04:44;101211.03;;;8.62;100.00
64095;BME280;50353;51.420;5.682;2024-02-14T01:07:10;101208.22;;;8.65;100.00
64095;BME280;50353;51.420;5.682;2024-02-14T01:09:36;101204.84;;;8.82;100.00
64095;BME280;50353;51.420;5.682;2024-02-14T01:12:02;101206.00;;;8.56;100.00
64095;BME280;50353;51.420;5.682;2024-02-14T01:14:27;101208.81;;;8.72;100.00
64095;BME280;50353;51.420;5.682;2024-02-14T01:16:53;101207.66;;;8.77;100.00
64095;BME280;50353;51.420;5.682;2024-02-14T01:19:19;101203.03;;;8.83;100.00
64095;BME280;50353;51.420;5.682;2024-02-14T01:21:45;101201.25;;;8.83;100.00
64095;BME280;50353;51.420;5.682;2024-02-14T01:24:15;101205.19;;;8.74;100.00
64095;BME280;50353;51.420;5.682;2024-02-14T01:26:41;101205.25;;;8.92;100.00
64095;BME280;50353;51.420;5.682;2024-02-14T01:29:06;101204.53;;;8.88;100.00
64095;BME280;50353;51.420;5.682;2024-02-14T01:31:35;101204.09;;;8.78;100.00
64095;BME280;50353;51.420;5.682;2024-02-14T01:34:00;101209.22;;;8.82;100.00
64095;BME280;50353;51.420;5.682;2024-02-14T01:36:28;101211.72;;;8.85;100.00
64095;BME280;50353;51.420;5.682;2024-02-14T01:38:54;101217.13;;;8.82;100.00
64095;BME280;50353;51.420;5.682;2024-02-14T01:41:20;101214.72;;;8.96;100.00
64095;BME280;50353;51.420;5.682;2024-02-14T01:43:46;101219.03;;;8.97;100.00
64095;BME280;50353;51.420;5.682;2024-02-14T01:46:12;101215.22;;;8.85;100.00
64095;BME280;50353;51.420;5.682;2024-02-14T01:48:38;101227.53;;;8.85;100.00
64095;BME280;50353;51.420;5.682;2024-02-14T01:51:06;101212.50;;;8.87;100.00
64095;BME280;50353;51.420;5.682;2024-02-14T01:53:35;101211.56;;;9.07;100.00
64095;BME280;50353;51.420;5.682;2024-02-14T01:56:01;101223.19;;;9.03;100.00
64095;BME280;50353;51.420;5.682;2024-02-14T01:58:29;101214.06;;;8.91;100.00
64095;BME280;50353;51.420;5.682;2024-02-14T02:00:55;101222.69;;;8.94;100.00
64095;BME280;50353;51.420;5.682;2024-02-14T02:03:25;101207.06;;;9.09;100.00
64095;BME280;50353;51.420;5.682;2024-02-14T02:05:54;101214.91;;;9.10;100.00
64095;BME280;50353;51.420;5.682;2024-02-14T02:08:20;101208.97;;;9.24;100.00
64095;BME280;50353;51.420;5.682;2024-02-14T02:10:46;101212.50;;;9.06;100.00
64095;BME280;50353;51.420;5.682;2024-02-14T02:13:11;101216.78;;;9.08;100.00
64095;BME280;50353;51.420;5.682;2024-02-14T02:15:37;101216.91;;;9.05;100.00
64095;BME280;50353;51.420;5.682;2024-02-14T02:18:03;101218.59;;;9.06;100.00
64095;BME280;50353;51.420;5.682;2024-02-14T02:20:31;101211.94;;;8.99;100.00
64095;BME280;50353;51.420;5.682;2024-02-14T02:22:58;101217.59;;;9.09;100.00
64095;BME280;50353;51.420;5.682;2024-02-14T02:25:24;101223.25;;;9.01;100.00
64095;BME280;50353;51.420;5.682;2024-02-14T02:27:55;101221.56;;;9.00;100.00
64095;BME280;50353;51.420;5.682;2024-02-14T02:30:22;101217.44;;;8.94;100.00
64095;BME280;50353;51.420;5.682;2024-02-14T02:32:47;101220.91;;;8.95;100.00
64095;BME280;50353;51.420;5.682;2024-02-14T02:35:13;101225.09;;;8.99;100.00
64095;BME280;50353;51.420;5.682;2024-02-14T02:37:39;101239.88;;;8.84;100.00
64095;BME280;50353;51.420;5.682;2024-02-14T02:40:04;101231.13;;;8.84;100.00
64095;BME280;50353;51.420;5.682;2024-02-14T02:42:30;101229.16;;;9.06;100.00
64095;BME280;50353;51.420;5.682;2024-02-14T02:44:55;101223.81;;;9.08;100.00
64095;BME280;50353;51.420;5.682;2024-02-14T02:47:21;101228.66;;;8.98;100.00
64095;BME280;50353;51.420;5.682;2024-02-14T02:49:46;101230.31;;;9.01;100.00
64095;BME280;50353;51.420;5.682;2024-02-14T02:52:12;101228.75;;;8.96;100.00
64095;BME280;50353;51.420;5.682;2024-02-14T02:54:38;101231.59;;;8.92;100.00
64095;BME280;50353;51.420;5.682;2024-02-14T02:57:07;101219.00;;;8.99;100.00
64095;BME280;50353;51.420;5.682;2024-02-14T02:59:34;101218.25;;;9.14;100.00
64095;BME280;50353;51.420;5.682;2024-02-14T03:02:00;101215.63;;;9.14;100.00
64095;BME280;50353;51.420;5.682;2024-02-14T03:04:26;101216.41;;;8.97;100.00
64095;BME280;50353;51.420;5.682;2024-02-14T03:06:51;101220.56;;;9.03;100.00
64095;BME280;50353;51.420;5.682;2024-02-14T03:09:17;101215.19;;;9.04;100.00
64095;BME280;50353;51.420;5.682;2024-02-14T03:11:46;101218.75;;;9.03;100.00
64095;BME280;50353;51.420;5.682;2024-02-14T03:14:13;101226.59;;;9.05;100.00
64095;BME280;50353;51.420;5.682;2024-02-14T03:16:38;101219.03;;;8.97;100.00
64095;BME280;50353;51.420;5.682;2024-02-14T03:19:04;101221.31;;;9.05;100.00
64095;BME280;50353;51.420;5.682;2024-02-14T03:21:31;101224.88;;;9.04;100.00
64095;BME280;50353;51.420;5.682;2024-02-14T03:23:58;101231.09;;;9.03;100.00
64095;BME280;50353;51.420;5.682;2024-02-14T03:26:27;101219.16;;;9.13;100.00
64095;BME280;50353;51.420;5.682;2024-02-14T03:28:52;101232.28;;;9.14;100.00
64095;BME280;50353;51.420;5.682;2024-02-14T03:31:18;101221.88;;;9.11;100.00
64095;BME280;50353;51.420;5.682;2024-02-14T03:33:44;101232.84;;;9.21;100.00
64095;BME280;50353;51.420;5.682;2024-02-14T03:36:09;101227.16;;;9.11;100.00
64095;BME280;50353;51.420;5.682;2024-02-14T03:38:35;101230.59;;;9.13;100.00
64095;BME280;50353;51.420;5.682;2024-02-14T03:41:01;101241.91;;;9.16;100.00
64095;BME280;50353;51.420;5.682;2024-02-14T03:43:26;101226.56;;;9.24;100.00
64095;BME280;50353;51.420;5.682;2024-02-14T03:45:53;101235.97;;;9.29;100.00
64095;BME280;50353;51.420;5.682;2024-02-14T03:48:20;101236.44;;;9.38;100.00
64095;BME280;50353;51.420;5.682;2024-02-14T03:50:45;101229.97;;;9.45;100.00
64095;BME280;50353;51.420;5.682;2024-02-14T03:53:10;101229.69;;;9.32;100.00
64095;BME280;50353;51.420;5.682;2024-02-14T03:55:37;101233.13;;;9.34;100.00
64095;BME280;50353;51.420;5.682;2024-02-14T03:58:02;101235.19;;;9.27;100.00
64095;BME280;50353;51.420;5.682;2024-02-14T04:00:29;101233.13;;;9.34;100.00
64095;BME280;50353;51.420;5.682;2024-02-14T04:02:55;101239.41;;;9.32;100.00
64095;BME280;50353;51.420;5.682;2024-02-14T04:05:27;101233.69;;;9.41;100.00
64095;BME280;50353;51.420;5.682;2024-02-14T04:07:53;101240.25;;;9.32;100.00
64095;BME280;50353;51.420;5.682;2024-02-14T04:10:20;101225.81;;;9.39;100.00
64095;BME280;50353;51.420;5.682;2024-02-14T04:12:46;101239.25;;;9.35;100.00
64095;BME280;50353;51.420;5.682;2024-02-14T04:15:11;101241.50;;;9.42;100.00
64095;BME280;50353;51.420;5.682;2024-02-14T04:17:38;101245.00;;;9.43;100.00
64095;BME280;50353;51.420;5.682;2024-02-14T04:20:04;101240.88;;;9.37;100.00
64095;BME280;50353;51.420;5.682;2024-02-14T04:22:30;101254.50;;;9.28;100.00
64095;BME280;50353;51.420;5.682;2024-02-14T04:24:56;101241.03;;;9.34;100.00
64095;BME280;50353;51.420;5.682;2024-02-14T04:27:22;101246.38;;;9.33;100.00
64095;BME280;50353;51.420;5.682;2024-02-14T04:29:47;101248.47;;;9.43;100.00
64095;BME280;50353;51.420;5.682;2024-02-14T04:32:13;101254.63;;;9.44;100.00
64095;BME280;50353;51.420;5.682;2024-02-14T04:34:39;101253.06;;;9.40;100.00
64095;BME280;50353;51.420;5.682;2024-02-14T04:37:05;101258.63;;;9.34;100.00
64095;BME280;50353;51.420;5.682;2024-02-14T04:39:36;101254.09;;;9.55;100.00
64095;BME280;50353;51.420;5.682;2024-02-14T04:42:01;101258.19;;;9.43;100.00
64095;BME280;50353;51.420;5.682;2024-02-14T04:44:28;101264.94;;;9.48;100.00
64095;BME280;50353;51.420;5.682;2024-02-14T04:46:53;101253.75;;;9.43;100.00
64095;BME280;50353;51.420;5.682;2024-02-14T04:49:19;101273.22;;;9.60;100.00
64095;BME280;50353;51.420;5.682;2024-02-14T04:51:45;101276.28;;;9.51;100.00
64095;BME280;50353;51.420;5.682;2024-02-14T04:54:10;101264.13;;;9.66;100.00
64095;BME280;50353;51.420;5.682;2024-02-14T04:56:36;101273.75;;;9.49;100.00
64095;BME280;50353;51.420;5.682;2024-02-14T04:59:01;101279.56;;;9.56;100.00
64095;BME280;50353;51.420;5.682;2024-02-14T05:01:30;101280.84;;;9.47;100.00
64095;BME280;50353;51.420;5.682;2024-02-14T05:03:55;101282.97;;;9.58;100.00
64095;BME280;50353;51.420;5.682;2024-02-14T05:06:21;101278.28;;;9.45;100.00
64095;BME280;50353;51.420;5.682;2024-02-14T05:08:47;101281.28;;;9.38;100.00
64095;BME280;50353;51.420;5.682;2024-02-14T05:11:12;101286.13;;;9.47;100.00
64095;BME280;50353;51.420;5.682;2024-02-14T05:13:38;101287.56;;;9.35;100.00
64095;BME280;50353;51.420;5.682;2024-02-14T05:16:06;101286.78;;;9.52;100.00
64095;BME280;50353;51.420;5.682;2024-02-14T05:18:36;101291.25;;;9.50;100.00
64095;BME280;50353;51.420;5.682;2024-02-14T05:21:05;101285.41;;;9.43;100.00
64095;BME280;50353;51.420;5.682;2024-02-14T05:23:30;101286.41;;;9.60;100.00
64095;BME280;50353;51.420;5.682;2024-02-14T05:25:56;101293.22;;;9.46;100.00
64095;BME280;50353;51.420;5.682;2024-02-14T05:28:21;101292.91;;;9.53;100.00
64095;BME280;50353;51.420;5.682;2024-02-14T05:30:46;101293.38;;;9.61;100.00
64095;BME280;50353;51.420;5.682;2024-02-14T05:33:12;101302.53;;;9.54;100.00
64095;BME280;50353;51.420;5.682;2024-02-14T05:35:37;101297.56;;;9.47;100.00
64095;BME280;50353;51.420;5.682;2024-02-14T05:38:03;101301.41;;;9.40;100.00
64095;BME280;50353;51.420;5.682;2024-02-14T05:40:29;101301.72;;;9.34;100.00
64095;BME280;50353;51.420;5.682;2024-02-14T05:42:55;101300.13;;;9.49;100.00
64095;BME280;50353;51.420;5.682;2024-02-14T05:45:21;101305.59;;;9.44;100.00
64095;BME280;50353;51.420;5.682;2024-02-14T05:47:46;101308.81;;;9.51;100.00
64095;BME280;50353;51.420;5.682;2024-02-14T05:50:12;101302.56;;;9.35;100.00
64095;BME280;50353;51.420;5.682;2024-02-14T05:52:38;101296.13;;;9.40;100.00
64095;BME280;50353;51.420;5.682;2024-02-14T05:55:04;101308.31;;;9.43;100.00
64095;BME280;50353;51.420;5.682;2024-02-14T05:57:36;101306.41;;;9.46;100.00
64095;BME280;50353;51.420;5.682;2024-02-14T06:00:02;101305.31;;;9.51;100.00
64095;BME280;50353;51.420;5.682;2024-02-14T06:02:28;101302.03;;;9.45;100.00
64095;BME280;50353;51.420;5.682;2024-02-14T06:04:54;101309.16;;;9.43;100.00
64095;BME280;50353;51.420;5.682;2024-02-14T06:07:19;101307.56;;;9.41;100.00
64095;BME280;50353;51.420;5.682;2024-02-14T06:09:45;101306.47;;;9.45;100.00
64095;BME280;50353;51.420;5.682;2024-02-14T06:12:11;101298.25;;;9.51;100.00
64095;BME280;50353;51.420;5.682;2024-02-14T06:14:36;101309.31;;;9.40;100.00
64095;BME280;50353;51.420;5.682;2024-02-14T06:17:02;101328.78;;;9.38;100.00
64095;BME280;50353;51.420;5.682;2024-02-14T06:19:27;101318.94;;;9.60;100.00
64095;BME280;50353;51.420;5.682;2024-02-14T06:21:53;101324.22;;;9.60;100.00
64095;BME280;50353;51.420;5.682;2024-02-14T06:24:18;101324.78;;;9.67;100.00
64095;BME280;50353;51.420;5.682;2024-02-14T06:26:45;101332.28;;;9.57;100.00
64095;BME280;50353;51.420;5.682;2024-02-14T06:29:10;101332.47;;;9.53;100.00
64095;BME280;50353;51.420;5.682;2024-02-14T06:31:36;101332.56;;;9.51;100.00
64095;BME280;50353;51.420;5.682;2024-02-14T06:34:01;101346.16;;;9.61;100.00
64095;BME280;50353;51.420;5.682;2024-02-14T06:36:27;101339.47;;;9.54;100.00
64095;BME280;50353;51.420;5.682;2024-02-14T06:38:52;101354.59;;;9.50;100.00
64095;BME280;50353;51.420;5.682;2024-02-14T06:41:19;101349.13;;;9.55;100.00
64095;BME280;50353;51.420;5.682;2024-02-14T06:43:45;101343.13;;;9.51;100.00
64095;BME280;50353;51.420;5.682;2024-02-14T06:46:11;101354.56;;;9.52;100.00
64095;BME280;50353;51.420;5.682;2024-02-14T06:48:36;101345.47;;;9.57;100.00
64095;BME280;50353;51.420;5.682;2024-02-14T06:51:02;101358.78;;;9.54;100.00
64095;BME280;50353;51.420;5.682;2024-02-14T06:53:27;101353.47;;;9.56;100.00
64095;BME280;50353;51.420;5.682;2024-02-14T06:55:53;101348.19;;;9.56;100.00
64095;BME280;50353;51.420;5.682;2024-02-14T06:58:18;101352.88;;;9.68;100.00
64095;BME280;50353;51.420;5.682;2024-02-14T07:00:44;101352.72;;;9.71;100.00
64095;BME280;50353;51.420;5.682;2024-02-14T07:03:09;101355.56;;;9.67;100.00
64095;BME280;50353;51.420;5.682;2024-02-14T07:05:35;101353.72;;;9.69;100.00
64095;BME280;50353;51.420;5.682;2024-02-14T07:08:01;101367.66;;;9.72;100.00
64095;BME280;50353;51.420;5.682;2024-02-14T07:10:27;101366.19;;;9.65;100.00
64095;BME280;50353;51.420;5.682;2024-02-14T07:12:52;101377.63;;;9.66;100.00
64095;BME280;50353;51.420;5.682;2024-02-14T07:15:18;101382.41;;;9.76;100.00
64095;BME280;50353;51.420;5.682;2024-02-14T07:17:43;101383.97;;;9.80;100.00
64095;BME280;50353;51.420;5.682;2024-02-14T07:20:09;101385.31;;;9.70;100.00
64095;BME280;50353;51.420;5.682;2024-02-14T07:22:37;101387.41;;;9.63;100.00
64095;BME280;50353;51.420;5.682;2024-02-14T07:25:03;101375.66;;;9.88;100.00
64095;BME280;50353;51.420;5.682;2024-02-14T07:27:30;101376.25;;;9.76;100.00
64095;BME280;50353;51.420;5.682;2024-02-14T07:29:55;101379.38;;;9.84;100.00
64095;BME280;50353;51.420;5.682;2024-02-14T07:32:21;101380.53;;;9.78;100.00
64095;BME280;50353;51.420;5.682;2024-02-14T07:34:47;101380.00;;;9.89;100.00
64095;BME280;50353;51.420;5.682;2024-02-14T07:37:12;101383.31;;;9.75;100.00
64095;BME280;50353;51.420;5.682;2024-02-14T07:39:40;101380.38;;;9.81;100.00
64095;BME280;50353;51.420;5.682;2024-02-14T07:42:05;101373.59;;;9.76;100.00
64095;BME280;50353;51.420;5.682;2024-02-14T07:44:31;101387.09;;;9.89;100.00
64095;BME280;50353;51.420;5.682;2024-02-14T07:46:57;101393.22;;;9.89;100.00
64095;BME280;50353;51.420;5.682;2024-02-14T07:49:22;101383.53;;;9.90;100.00
64095;BME280;50353;51.420;5.682;2024-02-14T07:51:48;101379.94;;;9.91;100.00
64095;BME280;50353;51.420;5.682;2024-02-14T07:54:13;101382.66;;;9.89;100.00
64095;BME280;50353;51.420;5.682;2024-02-14T07:56:39;101383.38;;;9.93;100.00
64095;BME280;50353;51.420;5.682;2024-02-14T07:59:04;101379.84;;;9.92;100.00
64095;BME280;50353;51.420;5.682;2024-02-14T08:01:31;101383.53;;;10.07;100.00
64095;BME280;50353;51.420;5.682;2024-02-14T08:03:57;101391.13;;;9.96;100.00
64095;BME280;50353;51.420;5.682;2024-02-14T08:06:23;101388.91;;;10.06;100.00
64095;BME280;50353;51.420;5.682;2024-02-14T08:08:49;101381.75;;;10.08;100.00
64095;BME280;50353;51.420;5.682;2024-02-14T08:11:17;101388.44;;;10.15;100.00
64095;BME280;50353;51.420;5.682;2024-02-14T08:13:43;101384.56;;;10.22;100.00
64095;BME280;50353;51.420;5.682;2024-02-14T08:16:08;101383.22;;;9.96;100.00
64095;BME280;50353;51.420;5.682;2024-02-14T08:18:33;101383.25;;;10.13;100.00
64095;BME280;50353;51.420;5.682;2024-02-14T08:21:00;101388.38;;;10.17;100.00
64095;BME280;50353;51.420;5.682;2024-02-14T08:23:25;101393.19;;;10.08;100.00
64095;BME280;50353;51.420;5.682;2024-02-14T08:25:51;101391.81;;;10.19;100.00
64095;BME280;50353;51.420;5.682;2024-02-14T08:28:16;101377.16;;;10.11;100.00
64095;BME280;50353;51.420;5.682;2024-02-14T08:30:46;101376.09;;;10.15;100.00
64095;BME280;50353;51.420;5.682;2024-02-14T08:33:12;101375.47;;;10.10;100.00
64095;BME280;50353;51.420;5.682;2024-02-14T08:35:38;101381.53;;;10.30;100.00
64095;BME280;50353;51.420;5.682;2024-02-14T08:38:04;101381.06;;;10.22;100.00
64095;BME280;50353;51.420;5.682;2024-02-14T08:40:29;101388.06;;;10.23;100.00
64095;BME280;50353;51.420;5.682;2024-02-14T08:42:55;101384.63;;;10.21;100.00
64095;BME280;50353;51.420;5.682;2024-02-14T08:45:20;101383.38;;;10.28;100.00
64095;BME280;50353;51.420;5.682;2024-02-14T08:47:46;101384.44;;;10.25;100.00
64095;BME280;50353;51.420;5.682;2024-02-14T08:50:11;101391.09;;;10.32;100.00
64095;BME280;50353;51.420;5.682;2024-02-14T08:52:37;101390.47;;;10.27;100.00
64095;BME280;50353;51.420;5.682;2024-02-14T08:55:06;101391.22;;;10.48;100.00
64095;BME280;50353;51.420;5.682;2024-02-14T08:57:36;101386.94;;;10.46;100.00
64095;BME280;50353;51.420;5.682;2024-02-14T09:00:01;101392.16;;;10.47;100.00
64095;BME280;50353;51.420;5.682;2024-02-14T09:02:28;101393.06;;;10.64;100.00
64095;BME280;50353;51.420;5.682;2024-02-14T09:04:53;101395.47;;;10.51;100.00
64095;BME280;50353;51.420;5.682;2024-02-14T09:07:19;101390.97;;;10.53;100.00
64095;BME280;50353;51.420;5.682;2024-02-14T09:09:45;101390.09;;;10.70;100.00
64095;BME280;50353;51.420;5.682;2024-02-14T09:12:11;101380.06;;;10.77;100.00
64095;BME280;50353;51.420;5.682;2024-02-14T09:14:37;101394.88;;;10.63;100.00
64095;BME280;50353;51.420;5.682;2024-02-14T09:17:02;101403.81;;;10.61;100.00
64095;BME280;50353;51.420;5.682;2024-02-14T09:19:27;101411.66;;;10.80;100.00
64095;BME280;50353;51.420;5.682;2024-02-14T09:21:53;101415.16;;;10.63;100.00
64095;BME280;50353;51.420;5.682;2024-02-14T09:24:18;101409.31;;;10.56;100.00
64095;BME280;50353;51.420;5.682;2024-02-14T09:26:44;101420.75;;;10.57;100.00
64095;BME280;50353;51.420;5.682;2024-02-14T09:29:09;101431.00;;;10.63;100.00
64095;BME280;50353;51.420;5.682;2024-02-14T09:31:39;101423.25;;;10.60;100.00
64095;BME280;50353;51.420;5.682;2024-02-14T09:34:05;101426.50;;;10.65;100.00
64095;BME280;50353;51.420;5.682;2024-02-14T09:36:30;101443.22;;;10.65;100.00
64095;BME280;50353;51.420;5.682;2024-02-14T09:38:56;101426.50;;;10.65;100.00
64095;BME280;50353;51.420;5.682;2024-02-14T09:41:48;101424.78;;;10.64;100.00
64095;BME280;50353;51.420;5.682;2024-02-14T09:44:12;101425.56;;;10.66;100.00
64095;BME280;50353;51.420;5.682;2024-02-14T09:46:38;101424.59;;;11.02;100.00
64095;BME280;50353;51.420;5.682;2024-02-14T09:49:04;101414.75;;;10.71;100.00
64095;BME280;50353;51.420;5.682;2024-02-14T09:51:31;101428.09;;;11.03;100.00
64095;BME280;50353;51.420;5.682;2024-02-14T09:53:59;101418.38;;;11.03;100.00
64095;BME280;50353;51.420;5.682;2024-02-14T09:56:25;101424.53;;;10.86;100.00
64095;BME280;50353;51.420;5.682;2024-02-14T09:58:53;101432.72;;;10.99;100.00
64095;BME280;50353;51.420;5.682;2024-02-14T10:01:25;101426.72;;;10.95;100.00
64095;BME280;50353;51.420;5.682;2024-02-14T10:03:51;101432.00;;;10.95;100.00
64095;BME280;50353;51.420;5.682;2024-02-14T10:06:18;101434.66;;;10.95;100.00
64095;BME280;50353;51.420;5.682;2024-02-14T10:08:49;101432.28;;;11.07;100.00
64095;BME280;50353;51.420;5.682;2024-02-14T10:11:16;101439.03;;;11.12;100.00
64095;BME280;50353;51.420;5.682;2024-02-14T10:13:45;101415.56;;;11.06;100.00
64095;BME280;50353;51.420;5.682;2024-02-14T10:16:12;101427.78;;;11.09;100.00
64095;BME280;50353;51.420;5.682;2024-02-14T10:18:38;101435.53;;;11.12;100.00
64095;BME280;50353;51.420;5.682;2024-02-14T10:21:04;101437.66;;;11.05;100.00
64095;BME280;50353;51.420;5.682;2024-02-14T10:23:30;101441.22;;;11.04;100.00
64095;BME280;50353;51.420;5.682;2024-02-14T10:25:56;101447.41;;;11.05;100.00
64095;BME280;50353;51.420;5.682;2024-02-14T10:28:22;101450.97;;;11.04;100.00
64095;BME280;50353;51.420;5.682;2024-02-14T10:30:48;101456.06;;;10.91;100.00
64095;BME280;50353;51.420;5.682;2024-02-14T10:33:17;101455.88;;;10.94;100.00
64095;BME280;50353;51.420;5.682;2024-02-14T10:35:42;101459.75;;;11.04;100.00
64095;BME280;50353;51.420;5.682;2024-02-14T10:38:09;101458.06;;;11.03;100.00
64095;BME280;50353;51.420;5.682;2024-02-14T10:40:35;101456.31;;;11.20;100.00
64095;BME280;50353;51.420;5.682;2024-02-14T10:43:02;101461.38;;;11.07;100.00
64095;BME280;50353;51.420;5.682;2024-02-14T10:45:28;101460.00;;;10.99;100.00
64095;BME280;50353;51.420;5.682;2024-02-14T10:47:56;101456.66;;;10.96;100.00
64095;BME280;50353;51.420;5.682;2024-02-14T10:50:24;101446.69;;;11.01;100.00
64095;BME280;50353;51.420;5.682;2024-02-14T10:52:53;101462.00;;;11.12;100.00
64095;BME280;50353;51.420;5.682;2024-02-14T10:55:24;101468.38;;;11.25;100.00
64095;BME280;50353;51.420;5.682;2024-02-14T10:57:53;101458.44;;;11.13;100.00
64095;BME280;50353;51.420;5.682;2024-02-14T11:00:20;101462.72;;;11.15;100.00
64095;BME280;50353;51.420;5.682;2024-02-14T11:02:47;101470.97;;;11.09;100.00
64095;BME280;50353;51.420;5.682;2024-02-14T11:05:14;101474.84;;;11.20;100.00
64095;BME280;50353;51.420;5.682;2024-02-14T11:07:46;101478.34;;;11.20;100.00
64095;BME280;50353;51.420;5.682;2024-02-14T11:10:17;101459.59;;;11.25;100.00
64095;BME280;50353;51.420;5.682;2024-02-14T11:12:42;101463.00;;;11.27;100.00
64095;BME280;50353;51.420;5.682;2024-02-14T11:15:21;101462.38;;;11.22;100.00
64095;BME280;50353;51.420;5.682;2024-02-14T11:17:47;101474.59;;;11.24;100.00
64095;BME280;50353;51.420;5.682;2024-02-14T11:20:19;101464.72;;;11.28;100.00
64095;BME280;50353;51.420;5.682;2024-02-14T11:23:02;101459.84;;;11.36;100.00
64095;BME280;50353;51.420;5.682;2024-02-14T11:25:37;101463.59;;;11.32;100.00
64095;BME280;50353;51.420;5.682;2024-02-14T11:28:17;101464.09;;;11.23;100.00
64095;BME280;50353;51.420;5.682;2024-02-14T11:30:45;101457.50;;;11.14;100.00
64095;BME280;50353;51.420;5.682;2024-02-14T11:35:43;101451.16;;;11.16;100.00
64095;BME280;50353;51.420;5.682;2024-02-14T11:38:09;101454.63;;;11.01;100.00
64095;BME280;50353;51.420;5.682;2024-02-14T11:40:35;101449.97;;;11.06;100.00
64095;BME280;50353;51.420;5.682;2024-02-14T11:43:01;101453.53;;;11.05;100.00
64095;BME280;50353;51.420;5.682;2024-02-14T11:45:29;101458.97;;;11.20;100.00
64095;BME280;50353;51.420;5.682;2024-02-14T11:47:55;101456.47;;;11.16;100.00
64095;BME280;50353;51.420;5.682;2024-02-14T11:50:21;101456.47;;;11.16;100.00
64095;BME280;50353;51.420;5.682;2024-02-14T11:52:46;101459.28;;;11.13;100.00
64095;BME280;50353;51.420;5.682;2024-02-14T11:55:12;101453.22;;;11.11;100.00
64095;BME280;50353;51.420;5.682;2024-02-14T11:57:41;101446.84;;;11.15;100.00
64095;BME280;50353;51.420;5.682;2024-02-14T12:00:08;101443.63;;;11.26;100.00
64095;BME280;50353;51.420;5.682;2024-02-14T12:02:33;101440.88;;;11.28;100.00
64095;BME280;50353;51.420;5.682;2024-02-14T12:05:01;101442.13;;;11.21;100.00
64095;BME280;50353;51.420;5.682;2024-02-14T12:07:30;101431.06;;;11.30;100.00
64095;BME280;50353;51.420;5.682;2024-02-14T12:09:56;101437.00;;;11.18;100.00
64095;BME280;50353;51.420;5.682;2024-02-14T12:12:22;101433.38;;;11.36;100.00
64095;BME280;50353;51.420;5.682;2024-02-14T12:14:52;101431.66;;;11.35;100.00
64095;BME280;50353;51.420;5.682;2024-02-14T12:17:17;101434.31;;;11.35;100.00
64095;BME280;50353;51.420;5.682;2024-02-14T12:19:47;101426.38;;;11.35;100.00
64095;BME280;50353;51.420;5.682;2024-02-14T12:22:15;101429.28;;;11.30;100.00
64095;BME280;50353;51.420;5.682;2024-02-14T12:24:44;101435.50;;;11.29;100.00
64095;BME280;50353;51.420;5.682;2024-02-14T12:27:09;101429.88;;;11.36;100.00
64095;BME280;50353;51.420;5.682;2024-02-14T12:29:35;101417.84;;;11.46;100.00
64095;BME280;50353;51.420;5.682;2024-02-14T12:32:05;101420.53;;;11.62;100.00
64095;BME280;50353;51.420;5.682;2024-02-14T12:34:32;101421.34;;;11.46;100.00
64095;BME280;50353;51.420;5.682;2024-02-14T12:36:58;101416.91;;;11.47;100.00
64095;BME280;50353;51.420;5.682;2024-02-14T12:39:23;101416.25;;;11.59;100.00
64095;BME280;50353;51.420;5.682;2024-02-14T12:41:51;101411.03;;;11.58;100.00
64095;BME280;50353;51.420;5.682;2024-02-14T12:44:17;101416.06;;;11.62;100.00